createdAt,value
2023-08-08T00:00:11.931Z,15.50
2023-08-08T00:02:40.780Z,15.40
2023-08-08T00:05:08.450Z,15.30
2023-08-08T00:07:35.663Z,15.30
2023-08-08T00:10:02.796Z,15.30
2023-08-08T00:12:30.162Z,15.20
2023-08-08T00:14:57.381Z,15.20
2023-08-08T00:17:24.498Z,15.20
2023-08-08T00:19:51.614Z,15.20
2023-08-08T00:22:18.891Z,15.10
2023-08-08T00:24:46.045Z,15.10
2023-08-08T00:27:13.236Z,15.10
2023-08-08T00:29:40.344Z,15.00
2023-08-08T00:32:07.685Z,15.00
2023-08-08T00:34:34.808Z,15.00
2023-08-08T00:37:01.973Z,15.00
2023-08-08T00:39:29.213Z,15.00
2023-08-08T00:41:56.842Z,14.90
2023-08-08T00:44:24.362Z,14.90
2023-08-08T00:46:51.620Z,14.90
2023-08-08T00:49:18.922Z,14.90
2023-08-08T00:51:47.117Z,14.90
2023-08-08T00:54:14.717Z,14.90
2023-08-08T00:56:41.926Z,14.80
2023-08-08T00:59:10.162Z,14.80
2023-08-08T01:01:37.387Z,14.80
2023-08-08T01:04:07.484Z,14.80
2023-08-08T01:06:42.277Z,14.80
2023-08-08T01:09:37.255Z,14.70
2023-08-08T01:12:06.249Z,14.70
2023-08-08T01:14:34.550Z,14.70
2023-08-08T01:17:02.859Z,14.60
2023-08-08T01:19:32.184Z,14.60
2023-08-08T01:22:06.686Z,14.60
2023-08-08T01:24:38.175Z,14.60
2023-08-08T01:27:06.713Z,14.60
2023-08-08T01:29:34.134Z,14.50
2023-08-08T01:32:01.563Z,14.60
2023-08-08T01:34:28.977Z,14.50
2023-08-08T01:37:08.112Z,14.50
2023-08-08T01:39:36.367Z,14.50
2023-08-08T01:42:04.590Z,14.40
2023-08-08T01:44:33.812Z,14.50
2023-08-08T01:47:01.017Z,14.40
2023-08-08T01:49:28.171Z,14.40
2023-08-08T01:51:55.513Z,14.40
2023-08-08T01:54:22.739Z,14.30
2023-08-08T01:56:50.003Z,14.30
2023-08-08T01:59:17.160Z,14.30
2023-08-08T02:01:44.270Z,14.30
2023-08-08T02:04:11.581Z,14.20
2023-08-08T02:06:38.738Z,14.20
2023-08-08T02:09:05.893Z,14.10
2023-08-08T02:11:32.998Z,14.10
2023-08-08T02:14:00.094Z,14.10
2023-08-08T02:16:27.323Z,14.00
2023-08-08T02:18:54.456Z,14.00
2023-08-08T02:21:21.608Z,14.00
2023-08-08T02:23:48.733Z,14.00
2023-08-08T02:26:16.113Z,13.90
2023-08-08T02:28:43.347Z,13.80
2023-08-08T02:31:10.577Z,13.90
2023-08-08T02:33:37.707Z,13.80
2023-08-08T02:36:05.529Z,13.80
2023-08-08T02:38:33.164Z,13.80
2023-08-08T02:41:00.251Z,13.70
2023-08-08T02:43:27.378Z,13.70
2023-08-08T02:45:54.609Z,13.70
2023-08-08T02:48:21.788Z,13.70
2023-08-08T02:50:48.900Z,13.60
2023-08-08T02:53:16.089Z,13.60
2023-08-08T02:55:43.185Z,13.60
2023-08-08T02:58:10.333Z,13.50
2023-08-08T03:00:37.582Z,13.50
2023-08-08T03:03:04.880Z,13.50
2023-08-08T03:05:32.060Z,13.50
2023-08-08T03:07:59.196Z,13.40
2023-08-08T03:10:26.532Z,13.40
2023-08-08T03:12:53.746Z,13.40
2023-08-08T03:15:20.983Z,13.40
2023-08-08T03:17:48.209Z,13.40
2023-08-08T03:20:15.607Z,13.30
2023-08-08T03:22:42.783Z,13.30
2023-08-08T03:25:10.229Z,13.30
2023-08-08T03:27:37.327Z,13.30
2023-08-08T03:30:05.097Z,13.20
2023-08-08T03:32:32.289Z,13.20
2023-08-08T03:34:59.554Z,13.20
2023-08-08T03:37:26.620Z,13.20
2023-08-08T03:39:53.785Z,13.20
2023-08-08T03:42:20.884Z,13.20
2023-08-08T03:44:48.063Z,13.20
2023-08-08T03:47:19.912Z,13.20
2023-08-08T03:49:47.859Z,13.10
2023-08-08T03:52:15.277Z,13.10
2023-08-08T03:54:44.308Z,13.10
2023-08-08T03:57:11.444Z,13.20
2023-08-08T03:59:38.577Z,13.10
2023-08-08T04:02:05.993Z,13.20
2023-08-08T04:04:34.473Z,13.20
2023-08-08T04:07:01.748Z,13.20
2023-08-08T04:09:28.979Z,13.20
2023-08-08T04:11:56.204Z,13.30
2023-08-08T04:14:23.309Z,13.30
2023-08-08T04:16:50.396Z,13.40
2023-08-08T04:19:17.485Z,13.40
2023-08-08T04:21:44.631Z,13.50
2023-08-08T04:24:13.461Z,13.60
2023-08-08T04:26:40.571Z,13.60
2023-08-08T04:29:07.844Z,13.70
2023-08-08T04:31:35.160Z,13.80
2023-08-08T04:34:02.704Z,14.00
2023-08-08T04:36:30.203Z,14.10
2023-08-08T04:38:57.339Z,14.20
2023-08-08T04:41:24.539Z,14.30
2023-08-08T04:43:51.823Z,14.40
2023-08-08T04:46:19.257Z,14.60
2023-08-08T04:48:48.803Z,14.70
2023-08-08T04:51:15.986Z,14.90
2023-08-08T04:53:43.212Z,15.10
2023-08-08T04:56:10.399Z,15.30
2023-08-08T04:58:37.530Z,15.40
2023-08-08T05:01:04.699Z,15.60
2023-08-08T05:03:31.983Z,15.70
2023-08-08T05:06:00.255Z,15.90
2023-08-08T05:08:27.445Z,16.00
2023-08-08T05:10:54.605Z,16.10
2023-08-08T05:13:22.033Z,16.20
2023-08-08T05:15:49.221Z,16.30
2023-08-08T05:18:16.289Z,16.40
2023-08-08T05:20:43.500Z,16.50
2023-08-08T05:23:10.735Z,16.60
2023-08-08T05:25:37.845Z,16.60
2023-08-08T05:28:05.306Z,16.70
2023-08-08T05:30:32.589Z,16.80
2023-08-08T05:33:00.106Z,16.80
2023-08-08T05:35:27.323Z,16.90
2023-08-08T05:37:54.555Z,16.90
2023-08-08T05:40:22.873Z,16.90
2023-08-08T05:42:50.062Z,16.90
2023-08-08T05:45:17.294Z,17.00
2023-08-08T05:47:44.481Z,16.90
2023-08-08T05:50:11.695Z,16.90
2023-08-08T05:52:38.772Z,16.90
2023-08-08T05:55:06.618Z,16.90
2023-08-08T05:57:33.819Z,16.90
2023-08-08T06:00:03.135Z,16.90
2023-08-08T06:02:31.080Z,16.90
2023-08-08T06:04:58.275Z,16.90
2023-08-08T06:07:25.769Z,16.90
2023-08-08T06:09:52.976Z,16.90
2023-08-08T06:12:20.384Z,16.90
2023-08-08T06:14:48.431Z,16.90
2023-08-08T06:17:15.908Z,16.90
2023-08-08T06:19:43.056Z,17.00
2023-08-08T06:22:10.447Z,17.10
2023-08-08T06:24:37.705Z,17.20
2023-08-08T06:27:04.899Z,17.30
2023-08-08T06:29:32.352Z,17.50
2023-08-08T06:32:00.137Z,17.60
2023-08-08T06:34:27.713Z,17.70
2023-08-08T06:36:55.410Z,17.90
2023-08-08T06:39:23.034Z,17.90
2023-08-08T06:41:50.356Z,18.10
2023-08-08T06:44:17.663Z,18.20
2023-08-08T06:46:44.906Z,18.30
2023-08-08T06:49:12.207Z,18.30
2023-08-08T06:51:39.333Z,18.40
2023-08-08T06:54:07.214Z,18.50
2023-08-08T06:56:34.527Z,18.60
2023-08-08T06:59:01.686Z,18.70
2023-08-08T07:01:28.908Z,18.80
2023-08-08T07:03:56.256Z,18.80
2023-08-08T07:06:23.374Z,18.90
2023-08-08T07:08:50.533Z,18.90
2023-08-08T07:11:17.941Z,19.00
2023-08-08T07:13:45.044Z,19.00
2023-08-08T07:16:12.274Z,19.10
2023-08-08T07:18:39.768Z,19.20
2023-08-08T07:21:07.343Z,19.20
2023-08-08T07:23:34.524Z,19.30
2023-08-08T07:26:01.642Z,19.40
2023-08-08T07:28:28.806Z,19.50
2023-08-08T07:30:55.952Z,19.60
2023-08-08T07:33:23.064Z,19.80
2023-08-08T07:35:50.245Z,19.90
2023-08-08T07:38:17.634Z,19.90
2023-08-08T07:40:45.487Z,20.00
2023-08-08T07:43:14.210Z,20.10
2023-08-08T07:45:41.685Z,20.20
2023-08-08T07:48:08.875Z,20.30
2023-08-08T07:50:38.608Z,20.40
2023-08-08T07:53:05.748Z,20.50
2023-08-08T07:55:32.841Z,20.60
2023-08-08T07:58:00.128Z,20.60
2023-08-08T08:00:27.536Z,20.80
2023-08-08T08:02:54.833Z,20.90
2023-08-08T08:05:21.995Z,21.00
2023-08-08T08:07:49.198Z,21.10
2023-08-08T08:10:16.548Z,21.10
2023-08-08T08:12:44.166Z,21.10
2023-08-08T08:15:11.804Z,21.20
2023-08-08T08:17:39.080Z,21.30
2023-08-08T08:20:11.925Z,21.50
2023-08-08T08:22:39.659Z,21.60
2023-08-08T08:25:09.824Z,21.70
2023-08-08T08:27:38.037Z,21.90
2023-08-08T08:30:11.195Z,22.00
2023-08-08T08:32:41.454Z,22.20
2023-08-08T08:35:09.801Z,22.40
2023-08-08T08:37:37.062Z,22.60
2023-08-08T08:40:06.182Z,22.70
2023-08-08T08:42:34.628Z,22.70
2023-08-08T08:45:05.033Z,22.60
2023-08-08T08:47:34.226Z,22.60
2023-08-08T08:50:03.226Z,22.60
2023-08-08T08:52:31.685Z,22.50
2023-08-08T08:54:58.998Z,22.60
2023-08-08T08:57:26.841Z,22.70
2023-08-08T08:59:54.093Z,22.50
2023-08-08T09:02:22.054Z,22.50
2023-08-08T09:04:49.703Z,22.60
2023-08-08T09:07:21.625Z,22.70
2023-08-08T09:09:51.208Z,22.80
2023-08-08T09:12:19.918Z,22.70
2023-08-08T09:14:47.365Z,22.50
2023-08-08T09:17:15.088Z,22.60
2023-08-08T09:19:47.828Z,22.90
2023-08-08T09:22:15.397Z,23.10
2023-08-08T09:24:43.538Z,23.40
2023-08-08T09:27:11.185Z,23.50
2023-08-08T09:29:38.877Z,23.70
2023-08-08T09:32:07.160Z,23.80
2023-08-08T09:34:34.518Z,23.80
2023-08-08T09:37:01.829Z,23.70
2023-08-08T09:39:30.005Z,23.80
2023-08-08T09:41:57.986Z,23.70
2023-08-08T09:44:27.522Z,23.60
2023-08-08T09:46:54.783Z,23.60
2023-08-08T09:49:23.092Z,23.60
2023-08-08T09:51:51.137Z,23.60
2023-08-08T09:54:18.598Z,23.60
2023-08-08T09:56:46.453Z,23.60
2023-08-08T09:59:14.474Z,23.70
2023-08-08T10:01:43.332Z,23.70
2023-08-08T10:04:13.062Z,23.70
2023-08-08T10:06:40.744Z,23.60
2023-08-08T10:09:08.945Z,23.40
2023-08-08T10:11:36.842Z,23.40
2023-08-08T10:14:05.598Z,23.20
2023-08-08T10:16:35.037Z,23.00
2023-08-08T10:19:05.487Z,22.90
2023-08-08T10:21:36.970Z,23.00
2023-08-08T10:24:05.138Z,23.10
2023-08-08T10:26:32.443Z,22.90
2023-08-08T10:29:01.087Z,22.90
2023-08-08T10:31:29.493Z,22.90
2023-08-08T10:34:07.084Z,23.00
2023-08-08T10:36:51.719Z,23.00
2023-08-08T10:39:21.900Z,23.20
2023-08-08T10:41:51.359Z,23.30
2023-08-08T10:44:26.205Z,23.40
2023-08-08T10:46:56.536Z,23.70
2023-08-08T10:49:24.959Z,24.10
2023-08-08T10:51:53.076Z,24.30
2023-08-08T10:54:24.427Z,24.40
2023-08-08T10:56:53.845Z,24.60
2023-08-08T10:59:25.133Z,24.90
2023-08-08T11:01:53.701Z,25.20
2023-08-08T11:04:27.254Z,25.40
2023-08-08T11:06:55.705Z,25.50
2023-08-08T11:09:24.323Z,25.60
2023-08-08T11:11:51.492Z,25.60
2023-08-08T11:14:21.798Z,25.30
2023-08-08T11:16:50.345Z,25.00
2023-08-08T11:19:20.293Z,24.80
2023-08-08T11:21:50.548Z,24.60
2023-08-08T11:24:17.826Z,24.40
2023-08-08T11:26:48.532Z,24.30
2023-08-08T11:29:16.234Z,24.30
2023-08-08T11:31:43.479Z,24.40
2023-08-08T11:34:13.188Z,24.60
2023-08-08T11:36:40.561Z,24.70
2023-08-08T11:39:10.206Z,24.70
2023-08-08T11:41:38.470Z,24.60
2023-08-08T11:44:06.689Z,24.50
2023-08-08T11:46:33.965Z,24.40
2023-08-08T11:49:08.125Z,24.50
2023-08-08T11:51:36.584Z,24.60
2023-08-08T11:54:05.316Z,24.60
2023-08-08T11:56:36.923Z,24.60
2023-08-08T11:59:05.648Z,24.70
2023-08-08T12:01:34.622Z,24.70
2023-08-08T12:04:09.590Z,24.90
2023-08-08T12:06:46.620Z,24.80
2023-08-08T12:09:16.967Z,24.80
2023-08-08T12:11:46.112Z,24.70
2023-08-08T12:14:16.008Z,24.70
2023-08-08T12:16:44.999Z,24.60
2023-08-08T12:19:12.578Z,24.60
2023-08-08T12:21:39.830Z,24.80
2023-08-08T12:24:07.578Z,25.10
2023-08-08T12:26:34.752Z,25.20
2023-08-08T12:29:02.114Z,25.40
2023-08-08T12:31:29.381Z,25.50
2023-08-08T12:33:56.736Z,25.50
2023-08-08T12:36:24.026Z,25.60
2023-08-08T12:38:51.281Z,25.60
2023-08-08T12:41:18.574Z,25.50
2023-08-08T12:43:45.691Z,25.50
2023-08-08T12:46:12.961Z,25.30
2023-08-08T12:48:40.120Z,25.20
2023-08-08T12:51:09.884Z,25.10
2023-08-08T12:53:37.043Z,25.10
2023-08-08T12:56:04.214Z,25.20
2023-08-08T12:58:31.417Z,25.30
2023-08-08T13:00:58.645Z,25.50
2023-08-08T13:03:26.149Z,25.60
2023-08-08T13:05:53.481Z,25.60
2023-08-08T13:08:20.882Z,25.60
2023-08-08T13:10:48.264Z,25.60
2023-08-08T13:13:15.440Z,25.50
2023-08-08T13:15:42.596Z,25.60
2023-08-08T13:18:10.098Z,25.60
2023-08-08T13:20:38.217Z,25.70
2023-08-08T13:23:08.445Z,25.70
2023-08-08T13:25:36.068Z,25.60
2023-08-08T13:28:04.354Z,25.60
2023-08-08T13:30:31.952Z,25.60
2023-08-08T13:33:01.461Z,25.70
2023-08-08T13:35:31.664Z,25.70
2023-08-08T13:37:59.317Z,25.70
2023-08-08T13:40:26.694Z,25.70
2023-08-08T13:42:54.633Z,25.80
2023-08-08T13:45:23.287Z,25.80
2023-08-08T13:47:51.258Z,25.80
2023-08-08T13:50:18.497Z,25.80
2023-08-08T13:52:45.818Z,25.80
2023-08-08T13:55:13.355Z,25.90
2023-08-08T13:57:40.719Z,25.90
2023-08-08T14:00:11.923Z,26.00
2023-08-08T14:02:40.756Z,26.10
2023-08-08T14:05:09.772Z,26.00
2023-08-08T14:07:36.906Z,26.10
2023-08-08T14:10:05.208Z,26.10
2023-08-08T14:12:32.519Z,26.00
2023-08-08T14:14:59.835Z,25.90
2023-08-08T14:17:27.318Z,25.80
2023-08-08T14:19:57.262Z,25.60
2023-08-08T14:22:24.710Z,25.50
2023-08-08T14:24:52.182Z,25.40
2023-08-08T14:27:19.970Z,25.40
2023-08-08T14:29:47.637Z,25.40
2023-08-08T14:32:15.243Z,25.60
2023-08-08T14:34:42.991Z,25.70
2023-08-08T14:37:10.340Z,25.80
2023-08-08T14:39:37.855Z,25.90
2023-08-08T14:42:05.604Z,25.90
2023-08-08T14:44:33.347Z,25.90
2023-08-08T14:47:01.158Z,25.80
2023-08-08T14:49:28.747Z,25.70
2023-08-08T14:51:56.025Z,25.60
2023-08-08T14:54:23.692Z,25.40
2023-08-08T14:56:51.654Z,25.20
2023-08-08T14:59:19.078Z,25.10
2023-08-08T15:01:47.652Z,25.00
2023-08-08T15:04:14.952Z,24.90
2023-08-08T15:06:42.542Z,24.90
2023-08-08T15:09:10.882Z,24.80
2023-08-08T15:11:38.392Z,24.70
2023-08-08T15:14:05.493Z,24.60
2023-08-08T15:16:32.724Z,24.60
2023-08-08T15:18:59.975Z,24.50
2023-08-08T15:21:27.120Z,24.50
2023-08-08T15:23:54.325Z,24.50
2023-08-08T15:26:23.453Z,24.50
2023-08-08T15:28:50.990Z,24.60
2023-08-08T15:31:18.388Z,24.60
2023-08-08T15:33:45.653Z,24.60
2023-08-08T15:36:12.871Z,24.70
2023-08-08T15:38:40.083Z,24.80
2023-08-08T15:41:08.451Z,25.00
2023-08-08T15:43:36.277Z,25.20
2023-08-08T15:46:04.400Z,25.30
2023-08-08T15:48:32.567Z,25.30
2023-08-08T15:50:59.798Z,25.30
2023-08-08T15:53:29.090Z,25.40
2023-08-08T15:55:57.280Z,25.40
2023-08-08T15:58:25.983Z,25.50
2023-08-08T16:00:53.886Z,25.50
2023-08-08T16:03:21.187Z,25.40
2023-08-08T16:05:49.014Z,25.30
2023-08-08T16:08:16.373Z,25.20
2023-08-08T16:10:44.870Z,25.10
2023-08-08T16:13:14.013Z,25.10
2023-08-08T16:15:42.238Z,25.00
2023-08-08T16:18:09.880Z,25.00
2023-08-08T16:20:37.136Z,25.00
2023-08-08T16:23:05.173Z,25.20
2023-08-08T16:25:32.536Z,25.80
2023-08-08T16:28:00.613Z,26.60
2023-08-08T16:30:29.485Z,27.20
2023-08-08T16:32:56.737Z,27.60
2023-08-08T16:35:23.875Z,28.30
2023-08-08T16:37:50.993Z,28.30
2023-08-08T16:40:19.285Z,27.70
2023-08-08T16:42:46.509Z,27.40
2023-08-08T16:45:13.574Z,27.40
2023-08-08T16:47:40.721Z,27.30
2023-08-08T16:50:09.468Z,27.30
2023-08-08T16:52:36.848Z,28.20
2023-08-08T16:55:04.470Z,28.90
2023-08-08T16:57:34.386Z,28.80
2023-08-08T17:00:02.519Z,28.00
2023-08-08T17:02:30.318Z,27.20
2023-08-08T17:04:57.513Z,26.50
2023-08-08T17:07:25.910Z,26.00
2023-08-08T17:09:53.058Z,25.50
2023-08-08T17:12:20.307Z,25.10
2023-08-08T17:14:47.916Z,24.80
2023-08-08T17:17:15.879Z,24.60
2023-08-08T17:19:43.165Z,24.40
2023-08-08T17:22:10.354Z,24.10
2023-08-08T17:24:40.602Z,23.90
2023-08-08T17:27:08.256Z,23.70
2023-08-08T17:29:35.575Z,23.50
2023-08-08T17:32:02.853Z,23.40
2023-08-08T17:34:30.298Z,23.20
2023-08-08T17:36:57.445Z,23.10
2023-08-08T17:39:25.783Z,22.90
2023-08-08T17:41:53.627Z,22.80
2023-08-08T17:44:20.821Z,22.70
2023-08-08T17:46:47.902Z,22.50
2023-08-08T17:49:15.132Z,22.40
2023-08-08T17:51:43.051Z,22.30
2023-08-08T17:54:10.225Z,22.20
2023-08-08T17:56:37.350Z,22.10
2023-08-08T17:59:04.704Z,22.00
2023-08-08T18:01:32.124Z,21.90
2023-08-08T18:03:59.510Z,21.80
2023-08-08T18:06:29.086Z,21.70
2023-08-08T18:08:56.297Z,21.60
2023-08-08T18:11:23.447Z,21.50
2023-08-08T18:13:50.821Z,21.40
2023-08-08T18:16:18.235Z,21.30
2023-08-08T18:18:45.495Z,21.30
2023-08-08T18:21:12.762Z,21.20
2023-08-08T18:24:10.467Z,21.10
2023-08-08T18:26:37.657Z,21.00
2023-08-08T18:29:05.582Z,20.90
2023-08-08T18:31:32.899Z,20.90
2023-08-08T18:34:03.873Z,20.80
2023-08-08T18:36:31.513Z,20.70
2023-08-08T18:38:58.773Z,20.60
2023-08-08T18:41:26.912Z,20.60
2023-08-08T18:43:54.106Z,20.60
2023-08-08T18:46:22.264Z,20.50
2023-08-08T18:48:49.647Z,20.50
2023-08-08T18:51:19.862Z,20.40
2023-08-08T18:53:47.003Z,20.30
2023-08-08T18:56:14.291Z,20.30
2023-08-08T18:58:42.376Z,20.20
2023-08-08T19:01:09.538Z,20.20
2023-08-08T19:03:37.055Z,20.10
2023-08-08T19:06:04.527Z,20.10
2023-08-08T19:08:31.692Z,20.10
2023-08-08T19:10:58.980Z,20.00
2023-08-08T19:13:27.806Z,20.00
2023-08-08T19:15:55.173Z,19.90
2023-08-08T19:18:23.622Z,19.90
2023-08-08T19:20:50.857Z,19.90
2023-08-08T19:23:18.188Z,19.80
2023-08-08T19:25:45.533Z,19.80
2023-08-08T19:28:12.747Z,19.70
2023-08-08T19:30:41.265Z,19.70
2023-08-08T19:33:09.116Z,19.70
2023-08-08T19:35:36.698Z,19.70
2023-08-08T19:38:24.389Z,19.60
2023-08-08T19:40:51.479Z,19.60
2023-08-08T19:43:19.296Z,19.50
2023-08-08T19:45:46.537Z,19.50
2023-08-08T19:48:14.528Z,19.50
2023-08-08T19:50:43.265Z,19.40
2023-08-08T19:53:11.341Z,19.40
2023-08-08T19:55:39.639Z,19.40
2023-08-08T19:58:07.287Z,19.40
2023-08-08T20:00:34.830Z,19.40
2023-08-08T20:03:02.111Z,19.30
2023-08-08T20:05:29.484Z,19.30
2023-08-08T20:07:56.962Z,19.20
2023-08-08T20:10:24.260Z,19.20
2023-08-08T20:12:51.377Z,19.20
2023-08-08T20:15:18.631Z,19.10
2023-08-08T20:17:45.918Z,19.10
2023-08-08T20:20:13.155Z,19.10
2023-08-08T20:22:40.365Z,19.00
2023-08-08T20:25:07.870Z,19.00
2023-08-08T20:27:35.011Z,19.00
2023-08-08T20:30:02.493Z,19.00
2023-08-08T20:32:32.472Z,19.00
2023-08-08T20:34:59.790Z,18.90
2023-08-08T20:37:27.263Z,18.90
2023-08-08T20:39:54.497Z,18.90
2023-08-08T20:42:21.686Z,18.90
2023-08-08T20:44:48.990Z,18.80
2023-08-08T20:47:16.177Z,18.80
2023-08-08T20:49:43.334Z,18.80
2023-08-08T20:52:10.450Z,18.80
2023-08-08T20:54:37.574Z,18.70
2023-08-08T20:57:06.160Z,18.70
2023-08-08T20:59:33.497Z,18.70
2023-08-08T21:02:00.685Z,18.60
2023-08-08T21:04:27.920Z,18.70
2023-08-08T21:06:55.105Z,18.60
2023-08-08T21:09:22.269Z,18.60
2023-08-08T21:11:49.500Z,18.50
2023-08-08T21:14:16.954Z,18.50
2023-08-08T21:16:44.194Z,18.50
2023-08-08T21:19:11.411Z,18.40
2023-08-08T21:21:38.574Z,18.40
2023-08-08T21:24:05.757Z,18.40
2023-08-08T21:26:39.872Z,18.30
2023-08-08T21:29:08.018Z,18.30
2023-08-08T21:31:35.241Z,18.20
2023-08-08T21:34:03.432Z,18.20
2023-08-08T21:36:31.154Z,18.10
2023-08-08T21:38:59.434Z,18.10
2023-08-08T21:41:28.446Z,18.00
2023-08-08T21:43:55.650Z,18.00
2023-08-08T21:46:24.339Z,18.00
2023-08-08T21:48:51.923Z,17.90
2023-08-08T21:51:19.166Z,17.90
2023-08-08T21:53:46.319Z,17.80
2023-08-08T21:56:13.539Z,17.80
2023-08-08T21:58:40.749Z,17.70
2023-08-08T22:01:08.038Z,17.70
2023-08-08T22:03:35.469Z,17.70
2023-08-08T22:06:02.786Z,17.70
2023-08-08T22:08:29.927Z,17.60
2023-08-08T22:10:57.520Z,17.60
2023-08-08T22:13:24.828Z,17.50
2023-08-08T22:15:52.979Z,17.50
2023-08-08T22:18:21.252Z,17.50
2023-08-08T22:20:48.862Z,17.40
2023-08-08T22:23:20.496Z,17.40
2023-08-08T22:25:50.124Z,17.40
2023-08-08T22:28:18.163Z,17.40
2023-08-08T22:30:46.089Z,17.30
2023-08-08T22:33:13.352Z,17.30
2023-08-08T22:35:40.749Z,17.30
2023-08-08T22:38:07.949Z,17.20
2023-08-08T22:40:35.199Z,17.20
2023-08-08T22:43:02.495Z,17.20
2023-08-08T22:45:29.663Z,17.20
2023-08-08T22:47:56.871Z,17.20
2023-08-08T22:50:24.658Z,17.20
2023-08-08T22:52:51.929Z,17.20
2023-08-08T22:55:19.130Z,17.20
2023-08-08T22:57:47.597Z,17.20
2023-08-08T23:00:16.717Z,17.20
2023-08-08T23:02:44.041Z,17.20
2023-08-08T23:05:11.304Z,17.20
2023-08-08T23:07:38.786Z,17.20
2023-08-08T23:10:06.726Z,17.20
2023-08-08T23:12:33.899Z,17.20
2023-08-08T23:15:01.109Z,17.20
2023-08-08T23:17:28.351Z,17.10
2023-08-08T23:19:55.538Z,17.10
2023-08-08T23:22:22.723Z,17.10
2023-08-08T23:24:49.955Z,17.10
2023-08-08T23:27:17.170Z,17.10
2023-08-08T23:29:44.349Z,17.10
2023-08-08T23:32:11.547Z,17.10
2023-08-08T23:34:39.111Z,17.10
2023-08-08T23:37:13.946Z,17.00
2023-08-08T23:39:47.763Z,17.00
2023-08-08T23:42:16.150Z,17.00
2023-08-08T23:44:43.430Z,16.90
2023-08-08T23:47:11.087Z,16.90
2023-08-08T23:49:39.613Z,16.90
2023-08-08T23:52:07.667Z,16.80
2023-08-08T23:54:34.818Z,16.80
2023-08-08T23:57:02.318Z,16.80
2023-08-08T23:59:29.683Z,16.80
